»·PEaware :: N822JH OG39-KPDX

N822JH :: OG39-KPDX

FLIGHT INFORMATION

Flight Status: Arrived
Operator: Privately registered:
United States
More flights under this callsign
Pilot: Anonymous 23149 (23149)
Aircraft: PIPER PA-24 COMMANCHE
(PA24)
More flights by this aircraft type
Origin: OG39 Longview Ranch Airport
United States
Destination: KPDX Portland Intl
United States
More flights between these airports :: More routes between these airports
Route: DIR
File this flight plan on PilotEdge
Remarks:
Altitude:
(Current/Filed)
125ft
Speed:
(Current/Filed)
162kts
Departed: 04-Aug-19 07:12 AM
Arrived: 04-Aug-19 08:15 AM
Distance/Time
Traveled:
136nm/1:03
Distance/Time
To Go:
Arrived

Flight Plot

Page will automatically refresh every two minutes.

Flight plan parsing failed; only flown route is shown


Map Options




Map Legend


Flown Route
Filed Route
Departure Airport
Arrival Airport
Navaid (VOR, NDB)
Fix

Horizontal Profiles

Position Reports

Time Latitude Longitude Heading Altitude Ground
Speed
04-Aug-19 06:59 44.667464 -119.654953 87 2008ft 0kts
04-Aug-19 07:00 44.667464 -119.654953 87 2008ft 0kts
04-Aug-19 07:01 44.667464 -119.654953 87 2008ft 0kts
04-Aug-19 07:02 44.667464 -119.654953 87 2008ft 0kts
04-Aug-19 07:03 44.667464 -119.654953 87 2008ft 0kts
04-Aug-19 07:04 44.667464 -119.654949 87 2008ft 0kts
04-Aug-19 07:05 44.667464 -119.654945 87 2008ft 0kts
04-Aug-19 07:06 44.667464 -119.654941 87 2008ft 0kts
04-Aug-19 07:07 44.667464 -119.654937 87 2008ft 0kts
04-Aug-19 07:08 44.664352 -119.653519 167 2008ft 22kts
04-Aug-19 07:09 44.657329 -119.651292 167 2008ft 25kts
04-Aug-19 07:10 44.654487 -119.650574 359 2008ft 0kts
04-Aug-19 07:10 44.654491 -119.650574 359 2008ft 0kts
04-Aug-19 07:12 44.657701 -119.651459 346 2008ft 67kts
04-Aug-19 07:13 44.685027 -119.659592 351 3047ft 114kts
04-Aug-19 07:13 44.712320 -119.661523 0 4171ft 124kts
04-Aug-19 07:15 44.728108 -119.707299 273 5543ft 130kts
04-Aug-19 07:15 44.727948 -119.749583 272 6461ft 129kts
04-Aug-19 07:16 44.729089 -119.800646 285 7394ft 133kts
04-Aug-19 07:18 44.736421 -119.860339 282 8467ft 135kts
04-Aug-19 07:18 44.743501 -119.903693 295 9265ft 136kts
04-Aug-19 07:20 44.764695 -119.957285 297 10210ft 134kts
04-Aug-19 07:20 44.778096 -119.996237 295 10975ft 129kts
04-Aug-19 07:21 44.794052 -120.043746 287 11542ft 137kts
04-Aug-19 07:22 44.810288 -120.092040 292 12094ft 139kts
04-Aug-19 07:23 44.827128 -120.141818 286 12478ft 144kts
04-Aug-19 07:24 44.843727 -120.193327 286 12113ft 132kts
04-Aug-19 07:25 44.859649 -120.243625 294 10590ft 159kts
04-Aug-19 07:26 44.879291 -120.301741 293 10462ft 170kts
04-Aug-19 07:27 44.898257 -120.361393 289 10463ft 164kts
04-Aug-19 07:28 44.916905 -120.420217 290 10466ft 164kts
04-Aug-19 07:29 44.936175 -120.479056 295 10460ft 165kts
04-Aug-19 07:30 44.955354 -120.537610 291 10455ft 164kts
04-Aug-19 07:31 44.973975 -120.596582 288 10455ft 164kts
04-Aug-19 07:32 44.992633 -120.656148 295 10463ft 169kts
04-Aug-19 07:33 45.012241 -120.715968 292 10456ft 168kts
04-Aug-19 07:34 45.030628 -120.775685 287 10456ft 164kts
04-Aug-19 07:35 45.050097 -120.836364 295 10453ft 177kts
04-Aug-19 07:36 45.069604 -120.897647 291 10449ft 168kts
04-Aug-19 07:37 45.087878 -120.958113 289 10445ft 166kts
04-Aug-19 07:38 45.106508 -121.016703 292 10682ft 158kts
04-Aug-19 07:39 45.123659 -121.070875 292 11179ft 144kts
04-Aug-19 07:40 45.138714 -121.118778 285 11872ft 126kts
04-Aug-19 07:41 45.152512 -121.165478 286 12522ft 138kts
04-Aug-19 07:42 45.170452 -121.220055 289 12522ft 161kts
04-Aug-19 07:43 45.187982 -121.277445 284 12520ft 157kts
04-Aug-19 07:44 45.205491 -121.333249 291 12513ft 154kts
04-Aug-19 07:45 45.223440 -121.390178 284 12519ft 164kts
04-Aug-19 07:46 45.241594 -121.448403 285 12522ft 160kts
04-Aug-19 07:47 45.259425 -121.507144 285 12527ft 166kts
04-Aug-19 07:48 45.277256 -121.566284 289 12519ft 162kts
04-Aug-19 07:49 45.296076 -121.622334 291 12507ft 154kts
04-Aug-19 07:50 45.311670 -121.678041 289 12503ft 152kts
04-Aug-19 07:51 45.329892 -121.734304 292 11569ft 164kts
04-Aug-19 07:52 45.346903 -121.794870 291 10311ft 167kts
04-Aug-19 07:53 45.366096 -121.857320 298 8741ft 177kts
04-Aug-19 07:54 45.385429 -121.920285 292 7481ft 172kts
04-Aug-19 07:55 45.403677 -121.982415 294 6055ft 167kts
04-Aug-19 07:56 45.421686 -122.040693 294 4620ft 148kts
04-Aug-19 07:57 45.438200 -122.096063 290 4514ft 158kts
04-Aug-19 07:58 45.455984 -122.153277 294 4514ft 156kts
04-Aug-19 07:59 45.473091 -122.210893 291 4518ft 161kts
04-Aug-19 08:00 45.496431 -122.261658 328 4512ft 154kts
04-Aug-19 08:01 45.532450 -122.290911 334 3860ft 144kts
04-Aug-19 08:02 45.565220 -122.314972 334 2907ft 127kts
04-Aug-19 08:03 45.583573 -122.352229 258 1830ft 124kts
04-Aug-19 08:04 45.576842 -122.399444 258 1226ft 133kts
04-Aug-19 08:05 45.586768 -122.452251 294 1078ft 152kts
04-Aug-19 08:06 45.605473 -122.503081 299 1059ft 135kts
04-Aug-19 08:07 45.625092 -122.552408 300 1082ft 148kts
04-Aug-19 08:08 45.644819 -122.603011 300 1078ft 142kts
04-Aug-19 08:09 45.663590 -122.651362 296 1053ft 129kts
04-Aug-19 08:10 45.641473 -122.678888 198 1126ft 123kts
04-Aug-19 08:11 45.619560 -122.658155 113 847ft 111kts
04-Aug-19 08:12 45.606233 -122.624425 118 403ft 84kts
04-Aug-19 08:13 45.594946 -122.595849 118 38ft 82kts
04-Aug-19 08:14 45.589257 -122.581883 169 21ft 15kts
04-Aug-19 08:15 45.587983 -122.582726 207 21ft 8kts
04-Aug-19 08:16 45.586363 -122.581392 18 21ft 2kts
04-Aug-19 08:17 45.586456 -122.581364 21 21ft 0kts
04-Aug-19 08:18 45.586456 -122.581364 21 21ft 0kts

Navigation Log

Ident Type
Flight plan parsing failed, navigation log unavailable